createdAt,value
2019-04-22T08:53:45.183Z,41.01
2019-04-22T08:54:31.181Z,40.75
2019-04-22T08:55:32.886Z,40.72
2019-04-22T08:56:43.682Z,40.76
2019-04-22T08:57:26.078Z,40.79
2019-04-22T08:58:31.687Z,41.11
2019-04-22T08:59:12.468Z,40.58
2019-04-22T09:00:12.995Z,40.07
2019-04-22T09:01:11.283Z,40.04
2019-04-22T09:02:17.458Z,38.91
2019-04-22T09:03:04.374Z,40.06
2019-04-22T09:04:02.261Z,41.20
2019-04-22T09:16:30.248Z,30.20
2019-04-22T09:17:20.962Z,31.08
2019-04-22T09:18:36.385Z,31.19
2019-04-22T09:19:20.836Z,30.74
2019-04-22T09:21:15.098Z,30.94
2019-04-22T09:22:17.533Z,30.46
2019-04-22T09:23:17.606Z,29.55
2019-04-22T20:06:38.475Z,55.04
2019-04-22T20:07:31.379Z,52.67
2019-04-22T20:08:31.010Z,46.33
2019-04-22T20:09:29.929Z,44.40
2019-04-22T20:10:24.679Z,45.64
2019-04-22T20:11:26.542Z,45.00
2019-04-22T20:12:16.561Z,45.50
2019-04-22T20:14:16.878Z,46.61
2019-04-22T20:15:12.437Z,47.34
2019-04-22T20:15:58.363Z,47.81
2019-04-22T20:17:02.601Z,48.22
2019-04-22T20:18:21.998Z,48.59
2019-04-22T20:18:56.927Z,48.74
2019-04-22T20:20:17.607Z,48.78
2019-04-22T20:20:59.688Z,48.95
2019-04-22T20:21:51.594Z,49.17
2019-04-22T20:22:44.903Z,50.33
2019-04-22T20:23:38.182Z,49.37
2019-04-22T20:24:27.886Z,49.41
2019-04-22T20:25:34.846Z,49.37
2019-04-22T20:26:40.805Z,49.58
2019-04-22T20:27:30.315Z,49.25
2019-04-22T20:28:31.080Z,49.47
2019-04-22T20:30:17.198Z,49.33
2019-04-22T20:31:18.577Z,49.25
2019-04-22T20:32:18.516Z,49.34
2019-04-22T20:33:08.513Z,49.34
2019-04-22T20:34:14.387Z,49.32
2019-04-22T20:35:07.965Z,49.06
2019-04-22T20:36:12.610Z,49.08
2019-04-22T20:38:02.896Z,49.07
2019-04-22T20:38:56.580Z,48.97
2019-04-22T20:39:57.232Z,48.90
2019-04-22T20:40:50.784Z,48.92
2019-04-22T20:41:46.130Z,48.88
2019-04-22T20:42:52.780Z,48.96
2019-04-22T20:43:50.017Z,48.78
2019-04-22T20:44:43.929Z,48.55
2019-04-22T20:45:35.170Z,48.77
2019-04-22T20:46:31.566Z,48.96
2019-04-22T20:47:25.239Z,48.88
2019-04-22T20:48:16.936Z,48.95
2019-04-22T20:49:27.616Z,48.75
2019-04-22T20:50:25.021Z,48.88
2019-04-22T20:51:19.511Z,49.05
2019-04-22T20:52:24.047Z,49.15
2019-04-22T20:53:11.563Z,49.06
2019-04-22T20:54:08.895Z,48.93
2019-04-22T20:55:02.734Z,49.02
2019-04-22T20:56:00.629Z,48.92
2019-04-22T20:56:59.648Z,49.03
2019-04-22T20:58:02.688Z,48.87
2019-04-22T20:58:53.663Z,49.01
2019-04-22T20:59:48.266Z,48.81
2019-04-22T21:00:40.264Z,48.90
2019-04-22T21:01:47.685Z,48.94
2019-04-22T21:02:32.730Z,48.99
2019-04-22T21:03:28.450Z,48.97
2019-04-22T21:04:27.816Z,49.05
2019-04-22T21:05:26.514Z,49.04
2019-04-22T21:06:29.323Z,48.97
2019-04-22T21:07:20.109Z,49.15
2019-04-22T21:08:26.646Z,49.32
2019-04-22T21:09:23.260Z,49.26
2019-04-22T21:10:13.216Z,49.25
2019-04-22T21:11:12.661Z,49.35
2019-04-22T21:12:05.085Z,49.37
2019-04-22T21:13:01.740Z,49.44
2019-04-22T21:14:04.428Z,49.26
2019-04-22T21:15:08.112Z,49.27
2019-04-22T21:16:04.626Z,49.51
2019-04-22T21:16:56.314Z,49.11
2019-04-22T21:17:53.368Z,48.85
2019-04-22T21:18:44.221Z,49.00
2019-04-22T21:19:56.805Z,48.72
2019-04-22T21:20:51.844Z,49.04
2019-04-22T21:21:46.345Z,49.08
2019-04-22T21:22:42.049Z,49.13
2019-04-22T21:23:29.226Z,49.15
2019-04-22T21:24:32.262Z,49.23
2019-04-22T21:25:24.000Z,49.25
2019-04-22T21:26:23.998Z,49.39
2019-04-22T21:27:43.862Z,49.64
2019-04-22T21:28:21.882Z,49.76
2019-04-22T21:29:12.607Z,49.86
2019-04-22T21:30:10.744Z,49.77
2019-04-22T21:31:10.593Z,49.58
2019-04-22T21:32:09.010Z,49.71
2019-04-22T21:32:57.764Z,49.79
2019-04-22T21:33:59.143Z,49.87
2019-04-22T21:35:06.659Z,49.85
2019-04-22T21:36:56.051Z,50.33
2019-04-22T21:37:57.072Z,50.42
2019-04-22T21:38:44.025Z,50.68
2019-04-22T21:39:35.345Z,50.81
2019-04-22T21:40:39.865Z,51.02
2019-04-22T21:41:37.629Z,51.07
2019-04-22T21:42:36.694Z,51.15
2019-04-22T21:43:38.543Z,51.12
2019-04-22T21:44:29.705Z,51.38
2019-04-22T21:45:18.694Z,51.57
2019-04-22T21:46:27.012Z,51.56
2019-04-22T21:47:22.380Z,51.50
2019-04-22T21:48:28.091Z,51.84
2019-04-22T21:49:05.831Z,51.56
2019-04-22T21:50:28.225Z,51.81
2019-04-22T21:51:16.257Z,51.92
2019-04-22T21:52:06.446Z,51.81
2019-04-22T21:53:06.765Z,51.98
2019-04-22T21:54:06.849Z,51.92
2019-04-22T21:54:59.668Z,52.05
2019-04-22T21:56:00.036Z,51.91
2019-04-22T21:57:03.360Z,52.01
2019-04-22T21:57:50.186Z,52.07
2019-04-22T21:58:43.303Z,52.21
2019-04-22T21:59:43.330Z,52.25
2019-04-22T22:00:44.655Z,53.09
2019-04-22T22:01:44.736Z,52.43
2019-04-22T22:02:31.413Z,52.89
2019-04-22T22:03:33.513Z,52.50
2019-04-22T22:04:24.967Z,52.70
2019-04-22T22:05:15.885Z,52.52
2019-04-22T22:06:10.882Z,52.54
2019-04-22T22:07:03.229Z,52.57
2019-04-22T22:08:19.150Z,52.56
2019-04-22T22:09:15.693Z,52.67
2019-04-22T22:10:05.964Z,52.54
2019-04-22T22:11:02.631Z,52.75
2019-04-22T22:11:57.507Z,52.58
2019-04-22T22:13:00.285Z,52.77
2019-04-22T22:13:56.419Z,52.73
2019-04-22T22:14:51.737Z,52.67
2019-04-22T22:15:49.562Z,52.59
2019-04-22T22:16:38.375Z,52.71
2019-04-22T22:17:44.246Z,52.77
2019-04-22T22:18:30.666Z,53.07
2019-04-22T22:19:39.696Z,52.83
2019-04-22T22:20:34.081Z,52.70
2019-04-22T22:21:43.432Z,52.95
2019-04-22T22:22:42.468Z,53.08
2019-04-22T22:24:22.921Z,53.03
2019-04-22T22:25:21.178Z,53.03
2019-04-22T22:26:09.766Z,53.22
2019-04-22T22:27:17.202Z,53.16
2019-04-22T22:28:21.944Z,53.26
2019-04-22T22:29:10.506Z,53.28
2019-04-22T22:30:19.130Z,53.47
2019-04-22T22:31:08.269Z,53.63
2019-04-22T22:32:02.149Z,53.63
2019-04-22T22:33:04.403Z,53.51
2019-04-22T22:33:52.791Z,54.51
2019-04-22T22:34:50.768Z,54.59
2019-04-22T22:35:45.586Z,54.38
2019-04-22T22:36:36.682Z,54.46
2019-04-22T22:37:28.202Z,54.87
2019-04-22T22:38:29.734Z,54.25
2019-04-22T22:39:28.112Z,54.52
2019-04-22T22:40:15.788Z,54.23
2019-04-22T22:41:09.887Z,54.64
2019-04-22T22:42:05.800Z,54.54
2019-04-22T22:43:11.713Z,54.55
2019-04-22T22:44:06.671Z,54.58
2019-04-22T22:45:07.793Z,54.66
2019-04-22T22:46:06.300Z,54.77
2019-04-22T22:47:08.687Z,54.73
2019-04-22T22:48:15.188Z,54.81
2019-04-22T22:49:06.409Z,54.79
2019-04-22T22:50:02.987Z,54.80
2019-04-22T22:50:55.066Z,54.87
2019-04-22T22:52:11.881Z,54.75
2019-04-22T22:52:59.385Z,54.62
2019-04-22T22:53:57.069Z,54.57
2019-04-22T22:54:46.464Z,54.52
2019-04-22T22:55:46.193Z,54.47
2019-04-22T22:56:51.703Z,54.45
2019-04-22T22:57:41.461Z,54.48
2019-04-22T22:58:34.297Z,54.64
2019-04-22T22:59:34.000Z,54.90
2019-04-22T23:00:30.423Z,54.66
2019-04-22T23:01:26.742Z,54.96
2019-04-22T23:02:25.838Z,55.01
2019-04-22T23:04:23.087Z,54.96
2019-04-22T23:05:19.943Z,55.08
2019-04-22T23:06:13.375Z,55.13
2019-04-22T23:07:11.456Z,54.99
2019-04-22T23:08:07.788Z,54.98
2019-04-22T23:09:04.272Z,55.04
2019-04-22T23:11:00.978Z,54.95
2019-04-22T23:12:12.190Z,54.93
2019-04-22T23:13:03.229Z,55.06
2019-04-22T23:13:43.025Z,54.96
2019-04-22T23:14:44.207Z,54.97
2019-04-22T23:15:37.116Z,54.96
2019-04-22T23:16:28.183Z,55.05
2019-04-22T23:17:19.909Z,54.94
2019-04-22T23:18:10.194Z,54.91
2019-04-22T23:19:08.975Z,55.12
2019-04-22T23:20:05.737Z,54.99
2019-04-22T23:21:01.414Z,55.14
2019-04-22T23:22:05.626Z,54.85
2019-04-22T23:23:14.077Z,55.44
2019-04-22T23:24:14.543Z,54.91
2019-04-22T23:25:14.511Z,54.98
2019-04-22T23:26:07.426Z,55.01
2019-04-22T23:26:59.854Z,54.84
2019-04-22T23:27:54.810Z,54.68
2019-04-22T23:28:50.346Z,54.73
2019-04-22T23:29:45.943Z,54.66
2019-04-22T23:30:38.271Z,54.72
2019-04-22T23:31:37.219Z,54.70
2019-04-22T23:32:35.863Z,54.97
2019-04-22T23:33:39.239Z,55.15
2019-04-22T23:34:32.828Z,55.34
2019-04-22T23:35:33.265Z,55.42
2019-04-22T23:36:23.736Z,55.07
2019-04-22T23:37:21.836Z,54.83
2019-04-22T23:38:23.109Z,55.29
2019-04-22T23:39:22.699Z,55.94
2019-04-22T23:40:24.452Z,54.92
2019-04-22T23:41:24.564Z,55.06
2019-04-22T23:42:20.903Z,55.04
2019-04-22T23:43:15.474Z,54.95
2019-04-22T23:44:10.026Z,55.19
2019-04-22T23:45:03.610Z,54.92
2019-04-22T23:45:59.384Z,55.06
2019-04-22T23:46:56.693Z,55.05
2019-04-22T23:47:45.962Z,55.14
2019-04-22T23:48:44.982Z,55.12
2019-04-22T23:49:42.068Z,55.30
2019-04-22T23:50:47.710Z,55.47
2019-04-22T23:51:51.201Z,55.54
2019-04-22T23:52:35.971Z,55.63
2019-04-22T23:53:57.525Z,55.66
2019-04-22T23:54:38.983Z,55.73
2019-04-22T23:55:33.804Z,55.90
2019-04-22T23:56:28.081Z,56.33
2019-04-22T23:57:27.145Z,56.34
2019-04-22T23:58:35.535Z,56.23
2019-04-22T23:59:23.296Z,56.37
